Time;durP1;ratioP1;P1;durP2;ratioP2;P2;SDS_P1;SDS_P2;PMS_P1;PMS_P2;Temp;Humidity;BMP_temperature;BMP_pressure;BME280_temperature;BME280_humidity;BME280_pressure;Samples;Min_cycle;Max_cycle;Signal;HPM_P1;HPM_P2
2022/03/20 00:02:00;;;;;;;9.80;5.53;;;;;;;-0.58;89.33;103532.91;5097764;28;20512;-83
2022/03/20 00:04:25;;;;;;;9.93;5.60;;;;;;;-0.57;88.95;103529.22;5082985;28;20032;-85
2022/03/20 00:06:51;;;;;;;12.10;5.50;;;;;;;-0.61;88.77;103524.09;5098733;28;20039;-85
2022/03/20 00:09:17;;;;;;;8.10;4.90;;;;;;;-0.64;88.85;103529.75;5097893;27;20035;-85
2022/03/20 00:11:42;;;;;;;9.45;5.28;;;;;;;-0.64;88.35;103512.72;5080573;28;20114;-84
2022/03/20 00:14:08;;;;;;;7.78;5.07;;;;;;;-0.66;88.71;103514.72;5080349;28;20113;-84
2022/03/20 00:16:34;;;;;;;10.50;4.78;;;;;;;-0.65;88.24;103514.56;5095565;27;20162;-84
2022/03/20 00:18:59;;;;;;;7.72;4.35;;;;;;;-0.66;88.53;103517.41;5099019;28;20039;-84
2022/03/20 00:21:25;;;;;;;9.00;4.10;;;;;;;-0.65;88.67;103511.88;5101567;27;20119;-84
2022/03/20 00:23:50;;;;;;;6.78;3.92;;;;;;;-0.64;88.21;103505.50;5078771;28;20081;-85
2022/03/20 00:26:17;;;;;;;10.23;4.22;;;;;;;-0.62;87.70;103508.91;5098097;27;20051;-84
2022/03/20 00:28:44;;;;;;;6.10;3.75;;;;;;;-0.59;87.62;103510.47;5096527;27;20596;-84
2022/03/20 00:31:10;;;;;;;8.02;4.15;;;;;;;-0.61;87.77;103501.66;5071776;28;20043;-84
2022/03/20 00:33:36;;;;;;;6.75;3.65;;;;;;;-0.62;87.47;103502.66;5096628;28;20039;-84
2022/03/20 00:36:01;;;;;;;6.70;3.85;;;;;;;-0.62;87.52;103500.81;5098246;28;20058;-85
2022/03/20 00:38:27;;;;;;;7.13;3.85;;;;;;;-0.63;87.88;103495.56;5097572;28;20036;-85
2022/03/20 00:40:52;;;;;;;8.38;3.22;;;;;;;-0.63;87.74;103496.41;5079903;28;20040;-84
2022/03/20 00:43:18;;;;;;;7.40;3.60;;;;;;;-0.63;87.80;103492.88;5078912;28;20775;-84
2022/03/20 00:45:44;;;;;;;7.75;3.55;;;;;;;-0.63;87.52;103471.28;5081171;28;20118;-84
2022/03/20 00:48:10;;;;;;;6.57;3.42;;;;;;;-0.60;87.61;103484.50;5080952;28;20036;-85
2022/03/20 00:50:36;;;;;;;7.50;3.28;;;;;;;-0.59;87.38;103482.66;5064786;27;20161;-84
2022/03/20 00:53:01;;;;;;;7.70;3.53;;;;;;;-0.63;87.32;103488.31;5097398;28;20129;-84
2022/03/20 00:55:29;;;;;;;7.68;3.92;;;;;;;-0.65;87.96;103494.84;5095899;28;20035;-84
2022/03/20 00:57:55;;;;;;;7.07;3.10;;;;;;;-0.64;87.33;103483.06;5079522;28;20039;-83
2022/03/20 01:00:21;;;;;;;6.35;3.30;;;;;;;-0.65;87.34;103474.13;5099727;28;20044;-84
2022/03/20 01:02:46;;;;;;;5.25;2.90;;;;;;;-0.68;87.84;103468.16;5079925;28;20478;-85
2022/03/20 01:05:13;;;;;;;6.65;3.50;;;;;;;-0.66;87.05;103468.88;5081692;28;20552;-85
2022/03/20 01:07:39;;;;;;;7.32;3.70;;;;;;;-0.67;87.33;103459.94;5078573;28;20044;-85
2022/03/20 01:10:06;;;;;;;5.22;3.10;;;;;;;-0.67;87.22;103451.00;5077644;28;20192;-84
2022/03/20 01:12:33;;;;;;;4.80;3.33;;;;;;;-0.67;87.51;103451.84;5080469;28;20089;-84
2022/03/20 01:15:00;;;;;;;7.25;3.38;;;;;;;-0.67;87.41;103443.75;5098440;28;20123;-84
2022/03/20 01:17:26;;;;;;;8.00;3.55;;;;;;;-0.69;87.54;103439.50;5098054;28;20051;-84
2022/03/20 01:19:52;;;;;;;5.32;2.90;;;;;;;-0.71;87.36;103430.66;5103904;28;20031;-84
2022/03/20 01:22:17;;;;;;;6.15;3.20;;;;;;;-0.70;87.68;103432.38;5103234;27;20038;-84
2022/03/20 01:24:43;;;;;;;7.50;2.85;;;;;;;-0.68;87.75;103439.34;5102786;27;20105;-84
2022/03/20 01:27:09;;;;;;;5.32;2.67;;;;;;;-0.66;87.49;103434.66;5065496;28;20505;-85
2022/03/20 01:29:35;;;;;;;6.05;2.75;;;;;;;-0.64;87.02;103442.63;5098217;27;20039;-84
2022/03/20 01:32:01;;;;;;;5.70;3.17;;;;;;;-0.63;87.22;103429.00;5102489;27;20031;-85
2022/03/20 01:34:28;;;;;;;6.35;3.17;;;;;;;-0.64;87.74;103424.59;5084495;27;20293;-85
2022/03/20 01:36:54;;;;;;;5.57;2.83;;;;;;;-0.61;87.40;103415.38;5099845;28;20534;-85
2022/03/20 01:39:20;;;;;;;4.97;2.88;;;;;;;-0.59;87.39;103426.00;5082759;28;20391;-85
2022/03/20 01:41:47;;;;;;;3.70;2.45;;;;;;;-0.59;87.39;103426.88;5081092;28;20036;-86
2022/03/20 01:44:13;;;;;;;4.68;2.28;;;;;;;-0.58;86.86;103435.81;5100307;28;20121;-85
2022/03/20 01:46:38;;;;;;;3.97;2.17;;;;;;;-0.58;87.13;103433.97;5100859;28;20134;-85
2022/03/20 01:49:04;;;;;;;5.65;2.83;;;;;;;-0.59;87.20;103429.56;5114379;27;20589;-85
2022/03/20 01:54:14;;;;;;;6.32;2.35;;;;;;;-0.59;87.47;103421.47;5099738;28;20116;-85
2022/03/20 01:56:45;;;;;;;5.03;2.53;;;;;;;-0.58;87.24;103439.34;5120074;27;20062;-85
2022/03/20 01:59:12;;;;;;;5.75;2.40;;;;;;;-0.56;87.08;103434.69;5110342;27;20073;-85
2022/03/20 02:01:38;;;;;;;6.38;2.45;;;;;;;-0.56;86.87;103434.69;5090261;28;20412;-84
2022/03/20 02:04:04;;;;;;;4.25;2.08;;;;;;;-0.54;86.97;103432.69;5109639;27;20044;-86
2022/03/20 02:06:29;;;;;;;3.90;1.88;;;;;;;-0.54;87.27;103412.97;5091189;27;20039;-85
2022/03/20 02:08:58;;;;;;;4.25;1.75;;;;;;;-0.56;86.95;103417.63;5123388;27;20666;-85
2022/03/20 02:11:27;;;;;;;4.00;2.00;;;;;;;-0.53;86.86;103417.34;5125245;27;20040;-85
2022/03/20 02:13:53;;;;;;;4.90;2.03;;;;;;;-0.53;87.45;103406.56;5071872;28;20032;-84
2022/03/20 02:16:19;;;;;;;3.78;1.98;;;;;;;-0.54;87.31;103411.09;5086532;27;20447;-84
2022/03/20 02:18:46;;;;;;;3.67;1.90;;;;;;;-0.54;86.67;103413.81;5100243;28;20574;-85
2022/03/20 02:21:12;;;;;;;4.95;1.90;;;;;;;-0.55;87.07;103405.84;5079014;28;20039;-85
2022/03/20 02:23:38;;;;;;;4.45;1.77;;;;;;;-0.56;87.39;103413.09;5099699;27;20435;-85
2022/03/20 02:26:03;;;;;;;4.35;2.08;;;;;;;-0.58;87.36;103398.91;5082624;28;20101;-85
2022/03/20 02:28:29;;;;;;;3.90;1.90;;;;;;;-0.57;87.48;103400.59;5117511;27;20051;-83
2022/03/20 02:30:55;;;;;;;5.03;1.80;;;;;;;-0.57;87.56;103389.81;5106704;28;20039;-84
2022/03/20 02:33:23;;;;;;;5.22;2.00;;;;;;;-0.58;87.59;103404.28;5095113;28;20039;-83
2022/03/20 02:35:51;;;;;;;4.40;2.30;;;;;;;-0.57;87.58;103419.47;5111124;27;20035;-84
2022/03/20 02:38:18;;;;;;;4.00;1.90;;;;;;;-0.57;87.89;103397.91;5131354;27;20047;-84
2022/03/20 02:40:45;;;;;;;4.35;1.95;;;;;;;-0.59;87.70;103397.19;5114481;28;20039;-85
2022/03/20 02:43:11;;;;;;;5.32;2.22;;;;;;;-0.57;88.10;103395.22;5128761;27;20043;-85
2022/03/20 02:45:38;;;;;;;3.65;1.80;;;;;;;-0.60;87.81;103395.50;5106428;28;20036;-85
2022/03/20 02:48:04;;;;;;;6.05;2.17;;;;;;;-0.57;87.97;103383.56;5101382;28;20036;-83
2022/03/20 02:50:35;;;;;;;4.60;2.15;;;;;;;-0.58;87.99;103395.34;5113399;27;20511;-84
2022/03/20 02:53:03;;;;;;;3.13;1.73;;;;;;;-0.57;87.81;103395.22;5101262;27;20035;-85
2022/03/20 02:55:35;;;;;;;3.17;1.98;;;;;;;-0.59;88.44;103397.19;5102975;27;20032;-86
2022/03/20 02:58:03;;;;;;;2.17;1.80;;;;;;;-0.56;88.10;103380.72;5122913;27;20501;-85
2022/03/20 03:00:30;;;;;;;3.72;1.80;;;;;;;-0.55;88.39;103377.03;5117048;27;20056;-84
2022/03/20 03:02:57;;;;;;;3.22;1.92;;;;;;;-0.57;87.86;103384.44;5128283;27;20066;-85
2022/03/20 03:05:25;;;;;;;4.47;1.80;;;;;;;-0.57;87.81;103383.56;5123226;27;20122;-84
2022/03/20 03:10:57;;;;;;;2.72;1.77;;;;;;;-0.63;88.07;103380.47;5128421;27;20531;-85
2022/03/20 03:13:37;;;;;;;4.07;2.45;;;;;;;-0.62;87.69;103370.53;5123392;27;20061;-85
2022/03/20 03:16:07;;;;;;;3.30;1.55;;;;;;;-0.65;88.50;103360.03;5118484;27;20494;-85
2022/03/20 03:18:33;;;;;;;3.67;1.88;;;;;;;-0.66;88.31;103366.41;5111853;27;20402;-85
2022/03/20 03:21:00;;;;;;;4.80;1.70;;;;;;;-0.66;88.07;103369.09;5077869;28;20071;-85
2022/03/20 03:23:26;;;;;;;6.00;2.80;;;;;;;-0.66;88.40;103364.56;5078042;28;20055;-85
2022/03/20 03:25:52;;;;;;;4.45;1.73;;;;;;;-0.67;88.62;103357.47;5088121;28;20070;-86
2022/03/20 03:28:19;;;;;;;3.58;2.03;;;;;;;-0.68;88.54;103358.47;5082224;28;20064;-85
2022/03/20 03:30:47;;;;;;;3.47;1.67;;;;;;;-0.69;88.06;103342.44;5109198;28;20127;-86
2022/03/20 03:33:14;;;;;;;5.05;2.28;;;;;;;-0.72;88.48;103338.13;5082844;28;20127;-87
2022/03/20 03:35:42;;;;;;;3.83;1.77;;;;;;;-0.72;88.38;103340.84;5100140;28;20101;-85
2022/03/20 03:38:11;;;;;;;5.40;2.40;;;;;;;-0.75;89.00;103343.81;5108560;28;20084;-85
2022/03/20 03:40:37;;;;;;;3.80;1.85;;;;;;;-0.75;89.16;103343.81;5091909;28;20040;-84
2022/03/20 03:43:03;;;;;;;4.93;2.00;;;;;;;-0.76;89.03;103335.88;5107669;27;20031;-84
2022/03/20 03:45:29;;;;;;;4.78;1.80;;;;;;;-0.78;88.96;103332.47;5100887;28;20040;-84
2022/03/20 03:47:55;;;;;;;4.10;1.88;;;;;;;-0.81;88.81;103339.00;5081102;28;20486;-84
2022/03/20 03:50:21;;;;;;;3.13;1.75;;;;;;;-0.81;89.50;103343.53;5104811;28;20184;-84
2022/03/20 03:52:48;;;;;;;4.78;1.83;;;;;;;-0.81;89.10;103332.75;5086680;28;20417;-85
2022/03/20 03:55:14;;;;;;;4.93;2.38;;;;;;;-0.84;89.22;103343.81;5100282;28;20517;-85
2022/03/20 03:57:47;;;;;;;4.72;2.00;;;;;;;-0.85;89.94;103358.31;5099038;28;20184;-85
2022/03/20 04:00:14;;;;;;;4.18;2.30;;;;;;;-0.88;89.69;103353.16;5107085;28;20039;-85
2022/03/20 04:02:45;;;;;;;4.50;2.28;;;;;;;-0.85;89.96;103347.50;5073670;28;20178;-85
2022/03/20 04:05:11;;;;;;;7.88;2.20;;;;;;;-0.89;90.11;103357.69;5081646;28;20086;-85
2022/03/20 04:07:37;;;;;;;6.00;2.03;;;;;;;-0.85;89.98;103369.06;5104924;28;20112;-85
2022/03/20 04:10:05;;;;;;;5.30;2.00;;;;;;;-0.80;89.81;103372.19;5096790;28;20040;-85
2022/03/20 04:12:31;;;;;;;4.45;1.52;;;;;;;-0.75;89.81;103362.69;5111476;28;20031;-85
2022/03/20 04:15:02;;;;;;;4.00;1.73;;;;;;;-0.76;89.68;103343.97;5087533;28;20081;-84
2022/03/20 04:17:29;;;;;;;4.55;1.77;;;;;;;-0.78;89.84;103321.69;5101859;27;20040;-84
2022/03/20 04:19:57;;;;;;;3.80;2.00;;;;;;;-0.79;89.90;103320.84;5086717;28;20037;-85
2022/03/20 04:22:22;;;;;;;3.35;1.83;;;;;;;-0.82;89.90;103326.50;5087754;27;20056;-83
2022/03/20 04:24:50;;;;;;;4.68;2.15;;;;;;;-0.78;89.44;103327.09;5113264;27;20058;-84
2022/03/20 04:27:16;;;;;;;4.25;1.88;;;;;;;-0.69;90.00;103332.50;5119923;27;20039;-86
2022/03/20 04:29:43;;;;;;;3.97;2.00;;;;;;;-0.50;89.72;103330.78;5119602;27;20426;-85
2022/03/20 04:32:11;;;;;;;4.13;1.75;;;;;;;-0.33;89.78;103325.53;5127969;27;20041;-85
2022/03/20 04:34:38;;;;;;;4.68;2.30;;;;;;;-0.07;89.71;103322.22;5113748;27;20504;-85
2022/03/20 04:37:05;;;;;;;4.95;1.95;;;;;;;0.21;89.31;103324.00;5123535;27;20084;-84
2022/03/20 04:39:34;;;;;;;4.65;1.90;;;;;;;0.41;88.61;103311.28;5104703;27;20047;-84
2022/03/20 04:42:00;;;;;;;3.70;1.70;;;;;;;0.73;88.22;103316.22;5117403;27;20572;-86
2022/03/20 04:44:27;;;;;;;4.32;1.80;;;;;;;1.01;87.36;103314.34;5128740;27;20066;-84
2022/03/20 04:46:53;;;;;;;6.93;2.08;;;;;;;1.30;87.14;103305.19;5104745;27;20448;-84
2022/03/20 05:00:18;;;;;;;2.63;1.70;;;;;;;2.51;80.37;103320.59;5115284;28;20039;-83
2022/03/20 05:02:45;;;;;;;4.18;1.95;;;;;;;2.76;79.07;103318.81;5123271;27;20042;-85
2022/03/20 05:05:11;;;;;;;5.35;2.13;;;;;;;3.07;77.48;103324.53;5105541;27;20122;-86
2022/03/20 05:07:36;;;;;;;3.83;1.70;;;;;;;3.38;76.08;103332.91;5125101;27;20308;-85
2022/03/20 05:15:32;;;;;;;3.75;1.98;;;;;;;3.67;73.20;103325.13;5120718;28;20113;-84
2022/03/20 05:17:58;;;;;;;4.55;1.95;;;;;;;3.73;72.55;103326.31;5124211;28;20055;-84
2022/03/20 05:20:25;;;;;;;2.97;1.70;;;;;;;4.08;71.54;103323.22;5095804;28;20512;-84
2022/03/20 05:22:51;;;;;;;5.15;1.77;;;;;;;4.40;70.13;103316.88;5125468;28;20502;-84
2022/03/20 05:25:17;;;;;;;5.85;1.80;;;;;;;4.65;69.57;103314.88;5119469;28;20039;-84
2022/03/20 05:27:43;;;;;;;2.38;1.48;;;;;;;5.02;68.37;103322.34;5114654;28;20036;-84
2022/03/20 05:30:10;;;;;;;6.30;1.90;;;;;;;5.34;66.18;103310.41;5122388;28;20039;-84
2022/03/20 05:32:36;;;;;;;4.60;2.40;;;;;;;5.50;65.54;103298.56;5095016;28;20035;-85
2022/03/20 05:35:04;;;;;;;4.03;1.92;;;;;;;5.95;64.71;103302.28;5089444;28;20107;-86
2022/03/20 05:37:29;;;;;;;3.08;1.70;;;;;;;6.53;62.74;103301.47;5088943;28;20050;-84
2022/03/20 05:39:55;;;;;;;4.63;1.80;;;;;;;6.88;61.59;103305.28;5092080;28;20521;-86
2022/03/20 05:42:21;;;;;;;3.72;1.83;;;;;;;7.12;60.21;103311.47;5078324;28;20082;-86
2022/03/20 05:44:47;;;;;;;2.25;1.63;;;;;;;7.22;59.67;103303.78;5112064;28;20460;-85
2022/03/20 05:47:12;;;;;;;3.03;1.75;;;;;;;7.49;59.18;103302.19;5093364;28;20045;-85
2022/03/20 05:49:39;;;;;;;3.33;1.58;;;;;;;7.38;57.80;103316.34;5098845;28;20395;-85
2022/03/20 05:52:06;;;;;;;4.88;1.52;;;;;;;7.68;57.15;103308.88;5085978;28;20045;-87
2022/03/20 05:54:32;;;;;;;3.63;1.38;;;;;;;7.94;55.90;103320.00;5115480;28;20049;-87
2022/03/20 05:59:42;;;;;;;3.30;1.52;;;;;;;8.35;54.67;103331.09;5085003;28;20036;-84
2022/03/20 06:02:09;;;;;;;3.78;1.50;;;;;;;8.59;53.72;103343.44;5104247;28;20059;-86
2022/03/20 06:04:35;;;;;;;4.68;1.67;;;;;;;8.54;53.06;103337.75;5128361;27;20039;-84
2022/03/20 06:07:01;;;;;;;1.98;1.23;;;;;;;8.45;53.76;103338.94;5090599;28;20100;-85
2022/03/20 06:09:27;;;;;;;5.95;1.63;;;;;;;8.51;53.30;103343.63;5112220;28;20040;-86
2022/03/20 06:11:53;;;;;;;6.30;1.60;;;;;;;8.71;52.83;103335.50;5126158;27;20035;-86
2022/03/20 06:14:19;;;;;;;5.03;1.67;;;;;;;8.52;52.60;103342.56;5116895;27;20050;-86
2022/03/20 06:16:48;;;;;;;3.60;1.65;;;;;;;8.58;52.79;103333.53;5131007;27;20045;-85
2022/03/20 06:19:15;;;;;;;3.15;1.70;;;;;;;8.95;51.97;103342.34;5105069;27;20043;-87
2022/03/20 06:21:42;;;;;;;4.22;1.60;;;;;;;9.36;51.64;103345.84;5104479;28;20046;-87
2022/03/20 06:24:08;;;;;;;7.25;1.90;;;;;;;9.39;50.27;103349.25;5085927;28;20048;-87
2022/03/20 06:26:34;;;;;;;4.70;1.77;;;;;;;9.69;50.29;103345.06;5109758;28;20058;-83
2022/03/20 06:29:00;;;;;;;4.03;1.67;;;;;;;10.04;48.72;103342.13;5087139;28;20123;-85
2022/03/20 06:31:26;;;;;;;5.25;1.75;;;;;;;10.21;48.54;103354.41;5089565;28;20169;-83
2022/03/20 06:33:53;;;;;;;3.00;1.63;;;;;;;10.47;48.00;103351.63;5097681;28;20520;-88
2022/03/20 06:36:19;;;;;;;6.30;2.00;;;;;;;10.87;46.84;103349.59;5104721;28;20044;-82
2022/03/20 06:38:44;;;;;;;3.20;1.88;;;;;;;11.08;46.76;103351.22;5084467;28;20035;-84
2022/03/20 06:41:10;;;;;;;5.10;1.70;;;;;;;10.87;45.53;103348.78;5088663;28;20036;-81
2022/03/20 06:43:37;;;;;;;3.20;1.50;;;;;;;10.77;45.96;103351.16;5096604;28;20040;-88
2022/03/20 06:46:06;;;;;;;3.28;1.60;;;;;;;10.83;46.22;103344.78;5072865;28;20072;-84
2022/03/20 06:48:32;;;;;;;3.60;1.73;;;;;;;11.09;45.54;103344.66;5109377;28;20138;-83
2022/03/20 06:50:59;;;;;;;3.17;1.50;;;;;;;11.24;45.89;103355.38;5084288;28;20421;-85
2022/03/20 06:53:25;;;;;;;2.55;1.60;;;;;;;11.49;44.30;103358.22;5099011;28;20039;-85
2022/03/20 06:55:51;;;;;;;4.57;1.85;;;;;;;11.70;44.33;103355.09;5095507;28;20047;-79
2022/03/20 06:58:17;;;;;;;3.63;1.67;;;;;;;11.66;43.88;103359.38;5098813;28;20051;-82
2022/03/20 07:00:44;;;;;;;3.55;1.20;;;;;;;12.05;43.38;103362.91;5081866;28;20040;-86
2022/03/20 07:03:09;;;;;;;2.38;1.90;;;;;;;12.15;43.18;103377.00;5095041;28;20035;-85
2022/03/20 07:05:36;;;;;;;3.40;1.80;;;;;;;12.13;43.03;103370.03;5105964;28;20039;-86
2022/03/20 07:08:04;;;;;;;2.42;1.60;;;;;;;12.13;42.61;103368.13;5090002;28;20036;-85
2022/03/20 07:10:30;;;;;;;3.60;1.52;;;;;;;12.20;42.61;103370.81;5075961;28;20134;-85
2022/03/20 07:13:48;;;;;;;3.17;1.85;;;;;;;12.50;42.83;103354.44;5091224;28;20074;-85
2022/03/20 07:15:44;;;;;;;2.63;1.60;;;;;;;13.09;40.83;103353.75;5103511;28;20035;-85
2022/03/20 07:18:12;;;;;;;3.03;1.52;;;;;;;13.56;40.17;103345.69;5096923;28;20047;-85
2022/03/20 07:20:39;;;;;;;4.20;1.58;;;;;;;13.85;39.24;103346.72;5108350;28;20040;-85
2022/03/20 07:23:09;;;;;;;2.57;1.33;;;;;;;13.80;40.05;103344.66;5107123;27;20146;-86
2022/03/20 07:31:09;;;;;;;5.40;1.90;;;;;;;14.54;37.74;103364.44;5125928;27;20043;-85
2022/03/20 07:33:35;;;;;;;4.20;1.45;;;;;;;14.45;37.83;103366.75;5105535;27;20058;-86
2022/03/20 07:36:01;;;;;;;2.97;1.73;;;;;;;14.73;37.50;103346.63;5099274;28;20459;-85
2022/03/20 07:38:27;;;;;;;3.58;1.70;;;;;;;14.84;36.56;103357.91;5112353;27;20663;-86
2022/03/20 07:40:53;;;;;;;3.92;2.10;;;;;;;14.81;36.92;103358.41;5128118;27;20043;-86
2022/03/20 07:43:19;;;;;;;5.82;1.65;;;;;;;14.85;36.64;103352.13;5103694;27;20460;-86
2022/03/20 07:45:45;;;;;;;3.80;1.60;;;;;;;15.17;36.47;103360.00;5117340;27;20123;-86
2022/03/20 07:48:11;;;;;;;3.83;1.90;;;;;;;15.67;35.76;103361.00;5124320;27;20069;-87
2022/03/20 07:50:37;;;;;;;5.22;2.00;;;;;;;15.84;35.13;103368.50;5115357;27;20117;-86
2022/03/20 07:53:04;;;;;;;4.47;1.80;;;;;;;15.99;34.71;103354.91;5132992;27;20065;-86
2022/03/20 07:55:29;;;;;;;7.50;1.73;;;;;;;16.24;34.22;103355.31;5122101;27;20039;-86
2022/03/20 07:57:56;;;;;;;6.85;1.50;;;;;;;16.42;33.47;103351.41;5126835;27;20140;-86
2022/03/20 08:00:22;;;;;;;2.77;1.60;;;;;;;16.57;33.50;103350.81;5116084;27;20123;-86
2022/03/20 08:02:48;;;;;;;5.43;1.65;;;;;;;16.53;33.63;103352.41;5128213;27;20118;-86
2022/03/20 08:05:14;;;;;;;6.50;1.83;;;;;;;16.95;33.31;103340.78;5115510;27;20047;-86
2022/03/20 08:07:40;;;;;;;3.05;1.70;;;;;;;16.94;33.00;103356.59;5124100;27;20292;-86
2022/03/20 08:10:10;;;;;;;3.17;1.45;;;;;;;16.83;32.99;103352.00;5117130;27;20416;-86
2022/03/20 08:12:35;;;;;;;2.90;1.50;;;;;;;16.80;33.00;103342.28;5115205;27;20066;-87
2022/03/20 08:15:03;;;;;;;4.63;1.75;;;;;;;17.20;32.28;103343.91;5107752;28;20070;-86
2022/03/20 08:17:29;;;;;;;4.35;1.85;;;;;;;17.09;32.50;103334.59;5122194;27;20034;-86
2022/03/20 08:19:56;;;;;;;6.25;1.60;;;;;;;17.13;32.38;103344.06;5083391;28;20035;-87
2022/03/20 08:22:22;;;;;;;2.42;1.33;;;;;;;17.23;31.93;103354.47;5128172;27;20039;-86
2022/03/20 08:24:48;;;;;;;5.32;1.45;;;;;;;17.57;31.62;103346.78;5116739;27;20118;-87
2022/03/20 08:27:14;;;;;;;4.55;1.77;;;;;;;17.94;31.44;103340.47;5113185;27;20060;-88
2022/03/20 08:29:40;;;;;;;7.18;1.88;;;;;;;18.45;30.51;103355.59;5119332;27;20038;-85
2022/03/20 08:32:07;;;;;;;4.82;1.80;;;;;;;18.42;30.37;103367.25;5095581;28;20044;-86
2022/03/20 08:34:34;;;;;;;5.03;1.97;;;;;;;18.38;30.31;103350.25;5113504;27;20035;-86
2022/03/20 08:36:59;;;;;;;4.63;1.58;;;;;;;18.10;30.07;103361.72;5126308;27;20296;-85
2022/03/20 08:39:25;;;;;;;2.85;1.55;;;;;;;17.71;30.83;103356.41;5102041;27;20039;-85
2022/03/20 08:41:52;;;;;;;7.30;1.85;;;;;;;17.83;31.14;103360.94;5122573;27;20032;-86
2022/03/20 08:44:18;;;;;;;2.15;1.58;;;;;;;17.53;31.11;103356.75;5096310;28;20525;-86
2022/03/20 08:46:43;;;;;;;4.07;1.65;;;;;;;17.49;31.31;103350.84;5089303;28;20093;-85
2022/03/20 08:49:09;;;;;;;3.83;1.52;;;;;;;17.09;31.70;103351.25;5106909;27;20440;-85
2022/03/20 08:51:36;;;;;;;3.38;1.80;;;;;;;17.18;32.20;103352.47;5120672;27;20031;-85
2022/03/20 08:54:02;;;;;;;7.18;1.80;;;;;;;17.41;31.47;103364.38;5071370;28;20086;-79
2022/03/20 08:56:28;;;;;;;6.88;1.80;;;;;;;17.65;31.21;103365.72;5126637;27;20061;-86
2022/03/20 08:58:54;;;;;;;5.07;1.42;;;;;;;17.51;31.30;103364.47;5107415;28;20120;-83
2022/03/20 09:01:20;;;;;;;4.63;1.83;;;;;;;17.31;31.47;103358.69;5071581;27;20059;-84
2022/03/20 09:03:49;;;;;;;4.03;1.70;;;;;;;17.29;31.87;103366.44;5123848;27;20560;-87
2022/03/20 09:06:19;;;;;;;3.45;1.67;;;;;;;17.45;31.85;103362.75;5114750;28;20039;-84
2022/03/20 09:08:46;;;;;;;3.75;1.65;;;;;;;17.46;31.41;103368.03;5099349;27;20054;-85
2022/03/20 09:11:12;;;;;;;4.70;1.90;;;;;;;17.59;31.00;103361.25;5123845;28;20503;-85
2022/03/20 09:13:37;;;;;;;4.80;2.05;;;;;;;16.81;32.14;103359.75;5122377;27;20086;-84
2022/03/20 09:19:00;;;;;;;2.80;2.03;;;;;;;14.50;35.01;103363.25;5100477;28;20046;-84
2022/03/20 09:21:26;;;;;;;6.60;1.67;;;;;;;13.28;37.41;103371.97;5121404;28;20038;-86
2022/03/20 09:23:52;;;;;;;5.85;1.85;;;;;;;12.24;39.21;103372.06;5114248;28;20052;-85
2022/03/20 09:26:18;;;;;;;4.88;2.42;;;;;;;11.38;40.47;103378.13;5106740;28;20501;-85
2022/03/20 09:28:45;;;;;;;6.07;1.70;;;;;;;10.70;41.87;103375.03;5105404;28;20127;-84
2022/03/20 09:31:10;;;;;;;4.18;1.80;;;;;;;10.25;43.62;103380.38;5106304;28;20531;-80
2022/03/20 09:33:36;;;;;;;3.53;1.80;;;;;;;9.93;44.37;103377.41;5124635;28;20047;-80
2022/03/20 09:36:02;;;;;;;4.30;1.83;;;;;;;9.50;44.97;103376.03;5096884;28;20036;-82
2022/03/20 09:38:29;;;;;;;4.28;1.90;;;;;;;9.18;46.38;103385.84;5104170;27;20123;-80
2022/03/20 09:40:58;;;;;;;6.35;2.08;;;;;;;9.00;46.64;103381.75;5107861;28;20032;-82
2022/03/20 09:43:25;;;;;;;5.28;1.88;;;;;;;8.76;47.62;103388.59;5106492;27;20082;-82
2022/03/20 09:45:52;;;;;;;5.05;1.80;;;;;;;8.67;47.89;103376.09;5068551;28;20043;-83
2022/03/20 09:48:18;;;;;;;8.02;1.98;;;;;;;8.46;49.06;103376.19;5108444;27;20054;-80
2022/03/20 09:50:45;;;;;;;3.75;1.83;;;;;;;8.31;49.37;103373.53;5102078;27;20036;-82
2022/03/20 09:53:11;;;;;;;6.10;1.85;;;;;;;8.22;49.36;103376.63;5119935;27;20126;-80
2022/03/20 09:55:37;;;;;;;7.65;2.65;;;;;;;8.29;49.53;103367.41;5116290;27;20131;-81
2022/03/20 09:58:03;;;;;;;7.85;2.22;;;;;;;8.14;49.79;103372.13;5104986;27;20044;-81
2022/03/20 10:00:30;;;;;;;4.60;2.42;;;;;;;8.00;50.56;103365.72;5102478;27;20047;-83
2022/03/20 10:02:56;;;;;;;4.18;2.08;;;;;;;7.93;50.81;103363.97;5111697;28;20036;-83
2022/03/20 10:05:25;;;;;;;6.22;2.05;;;;;;;7.83;51.37;103362.41;5117963;27;20409;-78
2022/03/20 10:07:51;;;;;;;6.50;1.67;;;;;;;7.75;51.11;103365.28;5104842;27;20070;-80
2022/03/20 10:10:17;;;;;;;5.95;2.38;;;;;;;7.75;51.22;103356.22;5085204;28;20437;-80
2022/03/20 10:13:01;;;;;;;5.70;2.08;;;;;;;7.60;52.33;103356.28;5083667;28;20042;-81
2022/03/20 10:15:42;;;;;;;5.72;1.67;;;;;;;7.52;52.85;103367.38;5110774;27;20042;-80
2022/03/20 10:18:14;;;;;;;4.55;1.52;;;;;;;7.48;52.27;103366.06;5106120;27;20052;-79
2022/03/20 10:20:47;;;;;;;4.43;1.50;;;;;;;7.37;52.36;103370.13;5112822;27;20031;-82
2022/03/20 10:23:41;;;;;;;5.05;1.70;;;;;;;7.19;52.79;103367.84;5113851;27;20055;-83
2022/03/20 10:26:14;;;;;;;4.47;1.58;;;;;;;7.04;53.68;103379.81;5111413;27;20035;-82
2022/03/20 10:28:48;;;;;;;5.45;1.60;;;;;;;7.00;54.13;103384.81;5100800;27;20089;-82
2022/03/20 10:31:17;;;;;;;3.63;1.50;;;;;;;6.97;53.84;103385.19;5068624;28;20044;-81
2022/03/20 10:33:46;;;;;;;3.47;1.63;;;;;;;6.93;53.85;103390.16;5107909;27;20090;-82
2022/03/20 10:36:17;;;;;;;4.43;1.60;;;;;;;6.99;54.50;103401.38;5105382;28;20552;-84
2022/03/20 10:38:45;;;;;;;3.45;1.52;;;;;;;6.91;53.99;103405.03;5089841;27;20042;-83
2022/03/20 10:41:26;;;;;;;5.90;1.88;;;;;;;6.84;54.91;103399.50;5083455;28;20130;-81
2022/03/20 10:43:54;;;;;;;5.18;1.20;;;;;;;6.77;55.34;103400.44;5106062;28;20123;-83
2022/03/20 10:46:23;;;;;;;9.13;1.95;;;;;;;6.81;55.35;103399.91;5095493;27;20040;-81
2022/03/20 10:48:52;;;;;;;4.22;2.08;;;;;;;6.73;55.28;103394.50;5116230;27;20031;-81
2022/03/20 10:51:27;;;;;;;2.40;1.25;;;;;;;6.73;55.24;103396.41;5086303;27;20032;-81
2022/03/20 10:54:01;;;;;;;3.88;1.30;;;;;;;6.81;55.55;103399.91;5104350;27;20134;-83
2022/03/20 10:56:26;;;;;;;4.18;1.52;;;;;;;6.76;55.72;103405.03;5093715;27;20037;-82
2022/03/20 10:58:52;;;;;;;4.05;1.80;;;;;;;6.76;55.69;103405.03;5088775;28;20035;-86
2022/03/20 11:01:19;;;;;;;4.80;2.00;;;;;;;6.68;56.21;103396.97;5083005;28;20063;-87
2022/03/20 11:03:46;;;;;;;4.38;2.08;;;;;;;6.61;55.86;103393.31;5074007;27;20067;-86
2022/03/20 11:06:13;;;;;;;4.43;2.45;;;;;;;6.56;56.37;103407.50;5075874;28;20066;-85
2022/03/20 11:08:39;;;;;;;7.05;3.22;;;;;;;6.58;56.79;103401.84;5080368;27;20138;-85
2022/03/20 11:11:10;;;;;;;6.00;2.42;;;;;;;6.57;55.96;103411.06;5100280;27;20039;-84
2022/03/20 11:13:37;;;;;;;5.20;2.20;;;;;;;6.60;56.45;103406.09;5090899;28;20046;-84
2022/03/20 11:16:08;;;;;;;5.72;2.38;;;;;;;6.59;56.45;103406.25;5095792;28;20533;-85
2022/03/20 11:18:35;;;;;;;5.03;2.05;;;;;;;6.55;56.70;103397.59;5090349;28;20040;-82
2022/03/20 11:21:02;;;;;;;4.43;1.70;;;;;;;6.63;56.90;103400.25;5106183;27;20036;-83
2022/03/20 11:23:29;;;;;;;5.82;1.88;;;;;;;6.68;57.13;103396.97;5114965;27;20044;-82
2022/03/20 11:25:55;;;;;;;5.75;1.90;;;;;;;6.60;56.24;103395.19;5103415;27;20121;-83
2022/03/20 11:28:22;;;;;;;6.10;2.13;;;;;;;6.67;56.77;103389.81;5088316;27;20236;-81
2022/03/20 11:30:49;;;;;;;5.88;2.13;;;;;;;6.72;56.27;103381.91;5102687;27;20837;-83
2022/03/20 11:33:14;;;;;;;4.32;1.60;;;;;;;6.77;56.04;103382.22;5078527;28;20044;-82
2022/03/20 11:35:40;;;;;;;4.60;2.00;;;;;;;6.77;56.40;103381.34;5078452;28;20054;-82
2022/03/20 11:38:16;;;;;;;6.25;2.00;;;;;;;6.80;56.61;103381.81;5099629;28;20388;-85
2022/03/20 11:41:07;;;;;;;4.47;1.92;;;;;;;6.83;56.12;103370.53;5100944;27;20420;-82
2022/03/20 11:43:34;;;;;;;3.72;1.73;;;;;;;7.01;55.91;103370.13;5102943;27;20040;-85
2022/03/20 11:46:28;;;;;;;7.63;2.20;;;;;;;7.10;56.11;103366.25;5088460;28;20058;-84
2022/03/20 11:49:19;;;;;;;4.80;2.22;;;;;;;7.03;56.13;103369.94;5100328;27;20055;-85
2022/03/20 11:52:07;;;;;;;4.10;1.73;;;;;;;7.10;55.62;103365.38;5100989;28;20093;-83
2022/03/20 11:54:42;;;;;;;5.35;1.95;;;;;;;7.04;56.14;103361.56;5081685;27;20101;-80
2022/03/20 11:57:29;;;;;;;4.28;1.45;;;;;;;7.05;55.86;103365.97;5096005;27;20040;-78
2022/03/20 11:59:56;;;;;;;5.07;1.85;;;;;;;7.01;55.66;103358.38;5076789;28;20767;-81
2022/03/20 12:02:52;;;;;;;3.88;1.65;;;;;;;7.04;56.29;103363.44;5099607;27;20036;-80
2022/03/20 12:05:20;;;;;;;6.78;2.08;;;;;;;7.06;55.49;103364.94;5093208;27;20084;-80